Salinas, CA

11:54 PM PDT on October 31, 2014 (GMT -0700)
University Park | Change Station
CLOSE
Current Station
Personal Weather Station
Location: Salinas, CA
Elevation: 52 ft
Nearby Weather Stations

Elev 52 ft 36.67 °N, 121.68 °W | Updated 4 minutes ago

Overcast
Overcast
54.7 °F
Feels Like 54.7 °F
N
4.7
Wind Variable Wind from SE

Today
High -- | Low -- °F
--% Chance of Precip.
Yesterday
High -- | Low -- °F
Precip. -- in
7:29 AM 6:10 PM
Waxing Gibbous, 63% visible
Pressure 29.81 in
Visibility 10.0 miles
Clouds Overcast 2400 ft
Dew Point 54 °F
Humidity 97%
Rainfall 1.07 in
Snow Depth Not available.
UV 0 out of 12
Pollen .50 out of 12
Air Quality Not available.
Flu Activity Not available.
METAR KSNS 010553Z 10007KT 10SM OVC024 14/13 A2978 RMK AO2 SLP094 60030 T01440128 10161 20139 51011

More Conditions Fewer Conditions

Pressure 29.81 in
Visibility 10.0 miles
Clouds Overcast 2400 ft
Dew Point 54 °F
Humidity 97%
Rainfall 1.07 in
Snow Depth Not available.
UV 0 out of 12
Pollen .50 out of 12
Air Quality Not available.
Flu Activity Not available.
METAR KSNS 010553Z 10007KT 10SM OVC024 14/13 A2978 RMK AO2 SLP094 60030 T01440128 10161 20139 51011

More Conditions Fewer Conditions

10-Day Weather Forecast

Almanac

Astronomy

Oct. 31, 2014 Rise Set
Actual Time
Civil Twilight
Nautical Twilight
Astronomical Twilight
Moon
Length of Visible Light
Length of Day
Tomorrow will be .
, % of the Moon is Illuminated

Today's Extremes

State Highs State Lows

Community

WunderPhotos

Upload Photos

1,766,865 photos uploaded!

WunderBlogs® & News

Nearby

Air Quality

  Air Quality AQ Index Pollutant
Not available.

Snow Depth

Station Depth Elevation

Earthquake Activity

City Distance Mag. Time & Date
Minimum magnitude displayed is 2.5.

Coastal Water Temperatures

Place Temperature

Nearby Weather Stations